Au Sable, Michigan
Current Conditions -  °F | °C
As of 8:33 AM on Thursday 23 Oct 2014 (Local Time) from KOSC Reporting Station
Clear Clear  
Wind Chill: 27°   Ceiling: Unl
Heat Index: 27°   Visibility: 10mi
Dew Point: 26°   Wind: 0mph
Humidity: 96%   Direction: NA
Pressure: 30.24"   Gusts: NA
Location:  44.4539°N, 83.4813°W
Report Text: KOSC 231233Z AUTO 00000KT 10SM CLR M02/M03 A3024 RMK AO2 T10291035
Loading
Personal Weather Stations






























Interactive Weather Map New forecast layout! Learn more

10-Day Weather Forecast

Advertisements
Track Severe Weather on mobile